createdAt,value
2018-05-25T00:00:02.125Z,15.40
2018-05-25T00:02:30.244Z,15.30
2018-05-25T00:04:58.290Z,15.40
2018-05-25T00:07:26.330Z,15.30
2018-05-25T00:09:54.380Z,15.20
2018-05-25T00:12:23.295Z,15.20
2018-05-25T00:14:51.343Z,15.20
2018-05-25T00:17:19.384Z,15.20
2018-05-25T00:19:47.429Z,15.20
2018-05-25T00:22:16.351Z,15.10
2018-05-25T00:24:44.445Z,15.00
2018-05-25T00:27:12.522Z,15.00
2018-05-25T00:29:40.566Z,15.00
2018-05-25T00:32:08.696Z,15.00
2018-05-25T00:34:36.730Z,14.90
2018-05-25T00:37:04.857Z,14.90
2018-05-25T00:39:32.906Z,14.80
2018-05-25T00:42:00.955Z,14.80
2018-05-25T00:44:29.023Z,14.80
2018-05-25T00:46:57.084Z,14.80
2018-05-25T00:49:25.891Z,14.80
2018-05-25T00:51:54.712Z,14.80
2018-05-25T00:54:22.800Z,14.80
2018-05-25T00:56:50.896Z,14.80
2018-05-25T00:59:18.968Z,14.80
2018-05-25T01:01:47.056Z,14.70
2018-05-25T01:04:15.142Z,14.70
2018-05-25T01:06:43.192Z,14.60
2018-05-25T01:09:12.035Z,14.60
2018-05-25T01:11:40.074Z,14.60
2018-05-25T01:14:08.903Z,14.50
2018-05-25T01:16:36.958Z,14.50
2018-05-25T01:19:05.079Z,14.50
2018-05-25T01:21:33.131Z,14.40
2018-05-25T01:24:01.259Z,14.40
2018-05-25T01:26:29.340Z,14.30
2018-05-25T01:28:57.423Z,14.30
2018-05-25T01:31:25.475Z,14.40
2018-05-25T01:33:53.591Z,14.30
2018-05-25T01:36:21.644Z,14.40
2018-05-25T01:38:49.763Z,14.30
2018-05-25T01:41:17.851Z,14.30
2018-05-25T01:43:45.894Z,14.30
2018-05-25T01:46:14.024Z,14.20
2018-05-25T01:48:42.063Z,14.10
2018-05-25T01:51:10.878Z,14.10
2018-05-25T01:53:39.688Z,14.00
2018-05-25T01:56:08.820Z,14.00
2018-05-25T01:58:36.866Z,14.00
2018-05-25T02:01:04.905Z,14.00
2018-05-25T02:03:32.967Z,14.00
2018-05-25T02:06:01.064Z,14.00
2018-05-25T02:08:29.147Z,14.00
2018-05-25T02:10:57.195Z,14.00
2018-05-25T02:13:26.027Z,14.10
2018-05-25T02:15:54.110Z,14.00
2018-05-25T02:18:22.179Z,14.10
2018-05-25T02:20:50.987Z,14.10
2018-05-25T02:23:19.909Z,14.10
2018-05-25T02:25:47.994Z,14.10
2018-05-25T02:28:16.051Z,14.10
2018-05-25T02:30:44.859Z,14.20
2018-05-25T02:33:13.786Z,14.30
2018-05-25T02:35:41.868Z,14.30
2018-05-25T02:38:09.955Z,14.50
2018-05-25T02:40:37.994Z,14.70
2018-05-25T02:43:06.064Z,14.80
2018-05-25T02:45:34.111Z,15.00
2018-05-25T02:48:02.171Z,15.10
2018-05-25T02:50:30.999Z,15.30
2018-05-25T02:52:59.051Z,15.20
2018-05-25T02:55:27.863Z,15.30
2018-05-25T02:57:56.778Z,15.30
2018-05-25T03:00:24.822Z,15.30
2018-05-25T03:02:52.888Z,15.20
2018-05-25T03:05:20.932Z,15.10
2018-05-25T03:07:49.003Z,15.10
2018-05-25T03:10:17.923Z,14.90
2018-05-25T03:12:45.981Z,14.80
2018-05-25T03:15:14.816Z,14.60
2018-05-25T03:17:42.867Z,14.60
2018-05-25T03:20:11.708Z,14.40
2018-05-25T03:22:39.755Z,14.40
2018-05-25T03:25:08.693Z,14.30
2018-05-25T03:27:36.730Z,14.30
2018-05-25T03:30:04.858Z,14.30
2018-05-25T03:32:32.903Z,14.30
2018-05-25T03:35:00.942Z,14.20
2018-05-25T03:37:28.996Z,14.10
2018-05-25T03:39:57.830Z,14.10
2018-05-25T03:42:25.878Z,14.10
2018-05-25T03:44:54.707Z,14.10
2018-05-25T03:47:22.759Z,14.10
2018-05-25T03:49:51.583Z,14.20
2018-05-25T03:52:19.635Z,14.20
2018-05-25T03:54:47.742Z,14.20
2018-05-25T03:57:16.667Z,14.00
2018-05-25T04:00:02.675Z,14.00
2018-05-25T04:02:30.757Z,14.00
2018-05-25T04:04:59.664Z,14.00
2018-05-25T04:07:27.743Z,14.00
2018-05-25T04:09:55.823Z,14.00
2018-05-25T04:12:23.920Z,14.00
2018-05-25T04:14:51.979Z,14.00
2018-05-25T04:17:20.827Z,14.00
2018-05-25T04:19:48.998Z,14.00
2018-05-25T04:22:17.059Z,14.00
2018-05-25T04:24:45.884Z,14.00
2018-05-25T04:27:13.967Z,14.00
2018-05-25T04:29:42.055Z,14.00
2018-05-25T04:32:10.099Z,14.00
2018-05-25T04:34:38.932Z,14.10
2018-05-25T04:37:07.024Z,14.10
2018-05-25T04:39:35.108Z,14.20
2018-05-25T04:42:03.134Z,14.20
2018-05-25T04:44:31.196Z,14.20
2018-05-25T04:46:59.351Z,14.20
2018-05-25T04:49:27.438Z,14.30
2018-05-25T04:51:55.527Z,14.40
2018-05-25T04:54:23.611Z,14.40
2018-05-25T04:56:51.702Z,14.40
2018-05-25T04:59:19.842Z,14.40
2018-05-25T05:01:47.872Z,14.50
2018-05-25T05:04:15.931Z,14.50
2018-05-25T05:06:44.747Z,14.60
2018-05-25T05:09:12.798Z,14.50
2018-05-25T05:11:40.838Z,14.70
2018-05-25T05:14:08.908Z,14.70
2018-05-25T05:16:36.999Z,14.80
2018-05-25T05:19:05.080Z,14.90
2018-05-25T05:21:33.137Z,15.00
2018-05-25T05:24:01.959Z,15.10
2018-05-25T05:26:30.016Z,15.10
2018-05-25T05:28:58.831Z,15.50
2018-05-25T05:31:27.751Z,15.50
2018-05-25T05:33:55.795Z,15.50
2018-05-25T05:36:23.927Z,15.60
2018-05-25T05:38:52.012Z,15.70
2018-05-25T05:41:20.074Z,15.90
2018-05-25T05:43:49.003Z,16.10
2018-05-25T05:46:17.067Z,16.10
2018-05-25T05:48:45.887Z,16.30
2018-05-25T05:51:13.951Z,16.30
2018-05-25T05:53:42.771Z,16.60
2018-05-25T05:56:10.959Z,16.60
2018-05-25T05:58:39.046Z,16.70
2018-05-25T06:01:07.103Z,16.90
2018-05-25T06:03:35.934Z,17.00
2018-05-25T06:06:03.994Z,17.00
2018-05-25T06:08:32.815Z,17.10
2018-05-25T06:11:01.007Z,17.10
2018-05-25T06:13:29.104Z,17.10
2018-05-25T06:15:57.158Z,17.10
2018-05-25T06:18:26.062Z,17.20
2018-05-25T06:20:54.891Z,17.20
2018-05-25T06:23:22.967Z,17.30
2018-05-25T06:25:51.054Z,17.20
2018-05-25T06:28:19.142Z,17.30
2018-05-25T06:30:47.206Z,17.40
2018-05-25T06:33:15.260Z,17.60
2018-05-25T06:35:43.323Z,17.70
2018-05-25T06:38:11.483Z,17.70
2018-05-25T06:40:39.548Z,17.70
2018-05-25T06:43:07.651Z,17.70
2018-05-25T06:45:35.721Z,17.80
2018-05-25T06:48:04.542Z,17.90
2018-05-25T06:50:32.603Z,17.90
2018-05-25T06:53:01.530Z,18.20
2018-05-25T06:55:29.590Z,18.10
2018-05-25T06:57:58.438Z,18.70
2018-05-25T07:00:26.459Z,18.70
2018-05-25T07:02:54.514Z,18.90
2018-05-25T07:05:22.673Z,19.10
2018-05-25T07:07:50.751Z,19.60
2018-05-25T07:10:18.807Z,20.10
2018-05-25T07:12:47.743Z,21.10
2018-05-25T07:15:15.804Z,21.10
2018-05-25T07:17:44.744Z,21.90
2018-05-25T07:20:12.827Z,21.90
2018-05-25T07:22:40.887Z,22.00
2018-05-25T07:25:08.935Z,22.10
2018-05-25T07:27:36.999Z,22.20
2018-05-25T07:30:05.131Z,22.50
2018-05-25T07:32:34.063Z,22.50
2018-05-25T07:35:02.159Z,22.50
2018-05-25T07:37:30.219Z,22.80
2018-05-25T07:39:58.319Z,22.60
2018-05-25T07:42:26.410Z,22.50
2018-05-25T07:44:54.495Z,22.30
2018-05-25T07:47:22.555Z,21.80
2018-05-25T07:49:51.487Z,21.90
2018-05-25T07:52:19.534Z,21.90
2018-05-25T07:54:48.368Z,22.10
2018-05-25T07:57:16.452Z,22.10
2018-05-25T07:59:44.508Z,21.70
2018-05-25T08:02:13.335Z,21.80
2018-05-25T08:04:41.428Z,21.80
2018-05-25T08:07:09.519Z,21.90
2018-05-25T08:09:37.571Z,22.00
2018-05-25T08:12:06.392Z,22.40
2018-05-25T08:14:34.443Z,22.40
2018-05-25T08:17:03.383Z,22.50
2018-05-25T08:19:31.439Z,22.50
2018-05-25T08:22:00.406Z,22.20
2018-05-25T08:24:28.459Z,22.20
2018-05-25T08:26:56.539Z,22.30
2018-05-25T08:29:24.625Z,22.40
2018-05-25T08:31:52.687Z,22.30
2018-05-25T08:34:21.617Z,22.20
2018-05-25T08:36:49.695Z,22.20
2018-05-25T08:39:17.784Z,22.50
2018-05-25T08:41:45.875Z,22.60
2018-05-25T08:44:14.695Z,22.50
2018-05-25T08:46:42.756Z,22.50
2018-05-25T08:49:10.831Z,22.40
2018-05-25T08:51:38.927Z,22.50
2018-05-25T08:54:07.011Z,22.40
2018-05-25T08:56:35.106Z,22.40
2018-05-25T08:59:03.261Z,22.20
2018-05-25T09:01:32.092Z,22.30
2018-05-25T09:04:00.167Z,22.20
2018-05-25T09:06:28.215Z,22.20
2018-05-25T09:08:56.354Z,22.20
2018-05-25T09:11:24.423Z,22.20
2018-05-25T09:13:52.487Z,22.20
2018-05-25T09:16:21.407Z,22.20
2018-05-25T09:18:49.500Z,22.20
2018-05-25T09:21:17.550Z,22.40
2018-05-25T09:23:45.619Z,22.50
2018-05-25T09:26:13.755Z,22.30
2018-05-25T09:28:41.819Z,22.50
2018-05-25T09:31:10.643Z,22.60
2018-05-25T09:33:38.703Z,22.60
2018-05-25T09:36:07.636Z,22.80
2018-05-25T09:38:35.695Z,22.80
2018-05-25T09:41:04.516Z,22.80
2018-05-25T09:43:32.571Z,22.80
2018-05-25T09:46:01.397Z,22.80
2018-05-25T09:48:30.219Z,23.00
2018-05-25T09:50:58.275Z,23.00
2018-05-25T09:53:27.099Z,23.00
2018-05-25T09:55:55.179Z,22.90
2018-05-25T09:58:23.299Z,23.10
2018-05-25T10:00:51.335Z,23.20
2018-05-25T10:03:20.166Z,23.30
2018-05-25T10:05:48.221Z,23.30
2018-05-25T10:08:17.047Z,23.40
2018-05-25T10:10:45.132Z,23.40
2018-05-25T10:13:13.215Z,23.50
2018-05-25T10:15:41.271Z,23.40
2018-05-25T10:18:10.098Z,23.80
2018-05-25T10:20:38.148Z,23.80
2018-05-25T10:23:06.971Z,24.40
2018-05-25T10:25:35.031Z,24.30
2018-05-25T10:28:03.165Z,24.40
2018-05-25T10:30:31.242Z,24.30
2018-05-25T10:32:59.295Z,24.40
2018-05-25T10:35:28.194Z,24.20
2018-05-25T10:37:57.023Z,24.30
2018-05-25T10:40:25.091Z,24.30
2018-05-25T10:42:53.926Z,24.80
2018-05-25T10:45:22.004Z,24.80
2018-05-25T10:47:50.058Z,25.00
2018-05-25T10:50:19.002Z,25.30
2018-05-25T10:52:47.066Z,25.30
2018-05-25T10:55:15.891Z,25.60
2018-05-25T10:57:43.955Z,25.60
2018-05-25T11:00:12.016Z,25.40
2018-05-25T11:02:40.074Z,25.50
2018-05-25T11:05:08.222Z,25.70
2018-05-25T11:07:36.284Z,25.70
2018-05-25T11:10:05.250Z,25.40
2018-05-25T11:12:33.266Z,25.40
2018-05-25T11:15:02.092Z,24.60
2018-05-25T11:17:30.150Z,24.60
2018-05-25T11:19:58.979Z,24.30
2018-05-25T11:22:27.074Z,24.20
2018-05-25T11:24:55.150Z,24.40
2018-05-25T11:27:23.201Z,24.90
2018-05-25T11:29:51.251Z,25.20
2018-05-25T11:32:19.311Z,25.30
2018-05-25T11:34:47.379Z,25.40
2018-05-25T11:37:16.196Z,25.40
2018-05-25T11:39:44.256Z,25.40
2018-05-25T11:42:13.070Z,24.70
2018-05-25T11:44:41.267Z,24.70
2018-05-25T11:47:09.315Z,24.10
2018-05-25T11:49:37.388Z,24.00
2018-05-25T11:52:05.450Z,24.00
2018-05-25T11:54:33.607Z,24.00
2018-05-25T11:57:01.659Z,24.00
2018-05-25T11:59:29.702Z,23.90
2018-05-25T12:01:57.760Z,24.00
2018-05-25T12:04:25.847Z,24.40
2018-05-25T12:06:53.890Z,24.50
2018-05-25T12:09:22.128Z,24.50
2018-05-25T12:11:50.211Z,24.40
2018-05-25T12:14:18.258Z,24.40
2018-05-25T12:16:47.099Z,25.20
2018-05-25T12:19:15.139Z,25.30
2018-05-25T12:21:43.195Z,25.60
2018-05-25T12:24:11.262Z,25.90
2018-05-25T12:26:39.294Z,25.90
2018-05-25T12:29:08.108Z,26.20
2018-05-25T12:31:36.919Z,26.20
2018-05-25T12:34:05.022Z,26.10
2018-05-25T12:36:33.063Z,26.10
2018-05-25T12:39:01.192Z,25.80
2018-05-25T12:41:29.244Z,25.90
2018-05-25T12:43:58.082Z,26.20
2018-05-25T12:46:26.160Z,26.10
2018-05-25T12:48:54.248Z,25.90
2018-05-25T12:51:22.308Z,25.90
2018-05-25T12:53:51.112Z,25.90
2018-05-25T12:56:20.032Z,25.90
2018-05-25T12:58:48.127Z,25.90
2018-05-25T13:01:16.184Z,26.30
2018-05-25T13:03:44.990Z,26.30
2018-05-25T13:06:13.910Z,26.20
2018-05-25T13:08:41.971Z,26.20
2018-05-25T13:11:10.800Z,26.60
2018-05-25T13:13:38.888Z,26.50
2018-05-25T13:16:06.972Z,26.90
2018-05-25T13:18:35.063Z,26.80
2018-05-25T13:21:03.144Z,26.90
2018-05-25T13:23:31.239Z,26.90
2018-05-25T13:25:59.286Z,26.80
2018-05-25T13:28:28.111Z,26.70
2018-05-25T13:30:56.163Z,26.70
2018-05-25T13:33:24.977Z,25.80
2018-05-25T13:35:53.804Z,25.90
2018-05-25T13:38:21.891Z,25.90
2018-05-25T13:40:50.020Z,25.80
2018-05-25T13:43:18.063Z,25.50
2018-05-25T13:45:46.144Z,25.70
2018-05-25T13:48:14.207Z,25.90
2018-05-25T13:50:43.041Z,26.20
2018-05-25T13:53:11.091Z,26.20
2018-05-25T13:55:39.904Z,26.20
2018-05-25T13:58:08.820Z,26.40
2018-05-25T14:00:36.915Z,26.40
2018-05-25T14:03:04.967Z,26.60
2018-05-25T14:05:33.800Z,26.60
2018-05-25T14:08:01.845Z,26.60
2018-05-25T14:10:29.969Z,26.60
2018-05-25T14:12:58.051Z,26.40
2018-05-25T14:15:26.130Z,26.50
2018-05-25T14:17:54.224Z,26.40
2018-05-25T14:20:23.016Z,26.30
2018-05-25T14:22:51.068Z,26.30
2018-05-25T14:25:19.115Z,26.40
2018-05-25T14:27:47.171Z,26.50
2018-05-25T14:30:15.266Z,26.40
2018-05-25T14:32:43.325Z,26.70
2018-05-25T14:35:12.127Z,26.70
2018-05-25T14:37:41.049Z,26.60
2018-05-25T14:40:09.136Z,26.70
2018-05-25T14:42:37.195Z,26.70
2018-05-25T14:45:06.026Z,26.70
2018-05-25T14:47:34.071Z,26.70
2018-05-25T14:50:02.114Z,26.60
2018-05-25T14:52:30.188Z,26.80
2018-05-25T14:54:58.370Z,26.90
2018-05-25T14:57:26.430Z,26.90
2018-05-25T14:59:55.259Z,26.90
2018-05-25T15:02:23.303Z,26.90
2018-05-25T15:04:52.252Z,26.60
2018-05-25T15:07:20.308Z,26.60
2018-05-25T15:09:49.108Z,26.70
2018-05-25T15:12:17.923Z,26.90
2018-05-25T15:14:46.021Z,26.80
2018-05-25T15:17:14.067Z,26.80
2018-05-25T15:19:42.908Z,26.40
2018-05-25T15:22:10.960Z,26.40
2018-05-25T15:24:39.795Z,25.90
2018-05-25T15:27:07.839Z,25.90
2018-05-25T15:29:36.016Z,25.80
2018-05-25T15:32:04.086Z,25.80
2018-05-25T15:34:32.868Z,26.30
2018-05-25T15:37:00.943Z,26.30
2018-05-25T15:39:28.976Z,26.30
2018-05-25T15:41:57.023Z,26.20
2018-05-25T15:44:25.843Z,26.70
2018-05-25T15:46:53.992Z,26.60
2018-05-25T15:49:22.043Z,26.70
2018-05-25T15:51:50.164Z,26.80
2018-05-25T15:54:18.215Z,26.90
2018-05-25T15:56:47.055Z,27.10
2018-05-25T15:59:15.123Z,27.00
2018-05-25T16:01:43.219Z,26.90
2018-05-25T16:04:11.307Z,26.90
2018-05-25T16:06:39.347Z,26.90
2018-05-25T16:09:07.477Z,26.90
2018-05-25T16:11:35.523Z,27.00
2018-05-25T16:14:03.647Z,27.00
2018-05-25T16:16:31.707Z,26.90
2018-05-25T16:19:00.540Z,26.40
2018-05-25T16:21:28.614Z,26.30
2018-05-25T16:23:56.685Z,26.20
2018-05-25T16:26:25.483Z,26.30
2018-05-25T16:28:54.322Z,26.40
2018-05-25T16:31:22.343Z,26.40
2018-05-25T16:33:50.395Z,26.50
2018-05-25T16:36:18.441Z,26.80
2018-05-25T16:38:47.252Z,27.40
2018-05-25T16:41:15.295Z,27.40
2018-05-25T16:43:43.352Z,27.30
2018-05-25T16:46:11.573Z,27.80
2018-05-25T16:48:39.606Z,28.20
2018-05-25T16:51:07.647Z,28.50
2018-05-25T16:53:35.767Z,28.90
2018-05-25T16:56:03.845Z,28.70
2018-05-25T16:58:31.863Z,28.80
2018-05-25T17:00:59.928Z,28.40
2018-05-25T17:03:28.007Z,28.60
2018-05-25T17:05:56.067Z,28.60
2018-05-25T17:08:24.891Z,28.60
2018-05-25T17:10:52.978Z,28.60
2018-05-25T17:13:21.068Z,28.60
2018-05-25T17:15:49.156Z,28.40
2018-05-25T17:18:17.246Z,28.10
2018-05-25T17:20:45.295Z,28.00
2018-05-25T17:23:13.422Z,27.60
2018-05-25T17:25:41.600Z,27.10
2018-05-25T17:28:09.675Z,26.40
2018-05-25T17:30:37.763Z,25.90
2018-05-25T17:33:05.852Z,25.40
2018-05-25T17:35:33.943Z,25.00
2018-05-25T17:38:01.999Z,24.60
2018-05-25T17:40:30.815Z,23.90
2018-05-25T17:42:58.858Z,23.90
2018-05-25T17:45:26.995Z,23.60
2018-05-25T17:47:55.038Z,23.30
2018-05-25T17:50:23.119Z,23.10
2018-05-25T17:52:51.167Z,22.90
2018-05-25T17:55:19.239Z,22.80
2018-05-25T17:57:47.278Z,22.70
2018-05-25T18:00:15.332Z,22.50
2018-05-25T18:02:43.376Z,22.40
2018-05-25T18:05:11.443Z,22.20
2018-05-25T18:07:39.478Z,22.10
2018-05-25T18:10:07.644Z,22.00
2018-05-25T18:12:35.739Z,21.80
2018-05-25T18:15:03.792Z,21.70
2018-05-25T18:17:32.616Z,21.50
2018-05-25T18:20:00.715Z,21.50
2018-05-25T18:22:28.792Z,21.40
2018-05-25T18:24:56.853Z,21.20
2018-05-25T18:27:25.664Z,21.00
2018-05-25T18:29:54.475Z,21.00
2018-05-25T18:32:22.515Z,20.90
2018-05-25T18:34:50.562Z,20.80
2018-05-25T18:37:18.607Z,20.70
2018-05-25T18:39:47.535Z,20.50
2018-05-25T18:42:15.619Z,20.40
2018-05-25T18:44:43.679Z,20.30
2018-05-25T18:47:12.487Z,20.10
2018-05-25T18:49:41.299Z,20.00
2018-05-25T18:52:09.344Z,20.00
2018-05-25T18:54:37.478Z,19.90
2018-05-25T18:57:05.567Z,19.80
2018-05-25T18:59:33.636Z,19.70
2018-05-25T19:02:02.453Z,19.50
2018-05-25T19:04:30.557Z,19.50
2018-05-25T19:06:58.615Z,19.40
2018-05-25T19:09:26.672Z,19.30
2018-05-25T19:11:54.791Z,19.10
2018-05-25T19:14:22.975Z,19.00
2018-05-25T19:16:51.018Z,18.90
2018-05-25T19:19:19.147Z,18.80
2018-05-25T19:21:47.195Z,18.70
2018-05-25T19:24:16.022Z,18.60
2018-05-25T19:26:44.856Z,18.60
2018-05-25T19:29:13.640Z,18.60
2018-05-25T19:31:41.745Z,18.60
2018-05-25T19:34:09.822Z,18.60
2018-05-25T19:36:37.867Z,18.50
2018-05-25T19:39:06.679Z,18.40
2018-05-25T19:41:35.598Z,18.40
2018-05-25T19:44:03.686Z,18.40
2018-05-25T19:46:32.488Z,18.40
2018-05-25T19:49:00.581Z,18.30
2018-05-25T19:51:28.659Z,18.30
2018-05-25T19:53:56.708Z,18.30
2018-05-25T19:56:24.766Z,18.30
2018-05-25T19:58:52.807Z,18.20
2018-05-25T20:01:20.912Z,18.20
2018-05-25T20:03:48.984Z,18.20
2018-05-25T20:06:17.074Z,18.10
2018-05-25T20:08:45.909Z,18.10
2018-05-25T20:11:14.064Z,18.10
2018-05-25T20:13:42.163Z,18.10
2018-05-25T20:16:10.253Z,18.20
2018-05-25T20:18:38.274Z,18.20
2018-05-25T20:21:06.325Z,18.20
2018-05-25T20:23:34.368Z,18.20
2018-05-25T20:26:03.187Z,18.20
2018-05-25T20:28:31.324Z,18.20
2018-05-25T20:30:59.454Z,18.30
2018-05-25T20:33:27.539Z,18.30
2018-05-25T20:35:55.632Z,18.30
2018-05-25T20:38:23.686Z,18.30
2018-05-25T20:40:52.522Z,18.40
2018-05-25T20:43:20.548Z,18.30
2018-05-25T20:45:48.615Z,18.40
2018-05-25T20:48:16.662Z,18.40
2018-05-25T20:50:44.744Z,18.30
2018-05-25T20:53:13.562Z,18.40
2018-05-25T20:55:41.621Z,18.30
2018-05-25T20:58:10.433Z,18.50
2018-05-25T21:00:38.524Z,18.50
2018-05-25T21:03:06.572Z,18.50
2018-05-25T21:05:34.630Z,18.60
2018-05-25T21:08:02.689Z,18.70
2018-05-25T21:10:30.743Z,18.70
2018-05-25T21:12:59.556Z,18.70
2018-05-25T21:15:27.627Z,18.70
2018-05-25T21:17:56.457Z,18.70
2018-05-25T21:20:24.540Z,18.70
2018-05-25T21:22:52.582Z,18.70
2018-05-25T21:25:20.712Z,18.70
2018-05-25T21:27:48.753Z,18.70
2018-05-25T21:30:16.804Z,18.70
2018-05-25T21:32:44.856Z,18.60
2018-05-25T21:35:12.900Z,18.70
2018-05-25T21:37:41.033Z,18.70
2018-05-25T21:40:09.103Z,18.70
2018-05-25T21:42:37.962Z,18.70
2018-05-25T21:45:05.975Z,18.70
2018-05-25T21:47:34.809Z,18.70
2018-05-25T21:50:02.855Z,18.70
2018-05-25T21:52:30.907Z,18.70
2018-05-25T21:54:59.064Z,18.70
2018-05-25T21:57:27.150Z,18.70
2018-05-25T21:59:55.242Z,18.70
2018-05-25T22:02:23.290Z,18.70
2018-05-25T22:04:52.157Z,18.70
2018-05-25T22:07:20.206Z,18.70
2018-05-25T22:09:48.255Z,18.70
2018-05-25T22:12:17.083Z,18.60
2018-05-25T22:14:45.182Z,18.60
2018-05-25T22:17:13.268Z,18.70
2018-05-25T22:19:41.356Z,18.70
2018-05-25T22:22:09.407Z,18.70
2018-05-25T22:24:37.515Z,18.60
2018-05-25T22:27:05.573Z,18.50
2018-05-25T22:29:34.383Z,18.50
2018-05-25T22:32:03.316Z,18.50
2018-05-25T22:34:31.358Z,18.50
2018-05-25T22:36:59.485Z,18.60
2018-05-25T22:39:27.526Z,18.60
2018-05-25T22:41:55.658Z,18.60
2018-05-25T22:44:41.531Z,18.60
2018-05-25T22:47:28.252Z,18.60
2018-05-25T22:50:14.787Z,18.60
2018-05-25T22:52:47.608Z,18.50
2018-05-25T22:55:15.659Z,18.50
2018-05-25T22:57:43.775Z,18.50
2018-05-25T23:00:11.823Z,18.50
2018-05-25T23:02:40.642Z,18.50
2018-05-25T23:05:08.688Z,18.50
2018-05-25T23:07:36.818Z,18.60
2018-05-25T23:10:04.863Z,18.50
2018-05-25T23:12:32.920Z,18.50
2018-05-25T23:15:00.981Z,18.50
2018-05-25T23:17:29.068Z,18.50
2018-05-25T23:19:57.155Z,18.50
2018-05-25T23:22:25.202Z,18.50
2018-05-25T23:24:54.031Z,18.70
2018-05-25T23:27:22.083Z,18.70
2018-05-25T23:29:50.928Z,18.70
2018-05-25T23:32:18.981Z,18.60
2018-05-25T23:34:47.791Z,18.50
2018-05-25T23:37:16.717Z,18.50
2018-05-25T23:39:44.766Z,18.50
2018-05-25T23:42:13.607Z,18.50
2018-05-25T23:44:41.651Z,18.50
2018-05-25T23:47:10.488Z,18.40
2018-05-25T23:49:38.571Z,18.40
2018-05-25T23:52:06.660Z,18.40
2018-05-25T23:54:34.707Z,18.30
2018-05-25T23:57:03.532Z,18.30
2018-05-25T23:59:31.588Z,18.30
